<?xml version="1.0" encoding="UTF-8" standalone="no" ?>
<gpx xmlns="http://www.topografix.com/GPX/1/1" xmlns:xsi="http://www.w3.org/2001/XMLSchema-instance" xsi:schemaLocation="http://www.topografix.com/GPX/1/1 http://www.topografix.com/GPX/1/1/gpx.xsd" version="1.1" creator="VisuGPX - https://www.visugpx.com">
  <metadata>
    <name>2020-10-23 Salleles Cabardes </name>
    <desc><![CDATA[Salleles Cabardes ,Trassanel: grotte des maquisards ,Gouffre de Cabrespine]]></desc>
  </metadata>
  <trk>
    <name><![CDATA[2020-10-23 Salleles Cabardes ,Trassanel, Cabrespine]]></name>
    <trkseg>
      <trkpt lat="43.32023" lon="2.41967">
        <ele>221.29</ele>
        <time>2020-10-23T06:05:09Z</time>
      </trkpt>
      <trkpt lat="43.32037" lon="2.41959">
        <ele>221.3</ele>
        <time>2020-10-23T06:05:26Z</time>
      </trkpt>
      <trkpt lat="43.3205" lon="2.41978">
        <ele>221.56</ele>
        <time>2020-10-23T06:05:37Z</time>
      </trkpt>
      <trkpt lat="43.32063" lon="2.42003">
        <ele>222.21</ele>
        <time>2020-10-23T06:05:51Z</time>
      </trkpt>
      <trkpt lat="43.32075" lon="2.4203">
        <ele>222.74</ele>
        <time>2020-10-23T06:06:03Z</time>
      </trkpt>
      <trkpt lat="43.32088" lon="2.42061">
        <ele>223.26</ele>
        <time>2020-10-23T06:06:12Z</time>
      </trkpt>
      <trkpt lat="43.32106" lon="2.42082">
        <ele>223.91</ele>
        <time>2020-10-23T06:06:22Z</time>
      </trkpt>
      <trkpt lat="43.32127" lon="2.42098">
        <ele>224.32</ele>
        <time>2020-10-23T06:06:33Z</time>
      </trkpt>
      <trkpt lat="43.32149" lon="2.42101">
        <ele>224.86</ele>
        <time>2020-10-23T06:06:43Z</time>
      </trkpt>
      <trkpt lat="43.3217" lon="2.42104">
        <ele>225.38</ele>
        <time>2020-10-23T06:06:55Z</time>
      </trkpt>
      <trkpt lat="43.32199" lon="2.42101">
        <ele>225.87</ele>
        <time>2020-10-23T06:07:05Z</time>
      </trkpt>
      <trkpt lat="43.32223" lon="2.42105">
        <ele>226.7</ele>
        <time>2020-10-23T06:07:16Z</time>
      </trkpt>
      <trkpt lat="43.32246" lon="2.42099">
        <ele>228.11</ele>
        <time>2020-10-23T06:07:27Z</time>
      </trkpt>
      <trkpt lat="43.32261" lon="2.4211">
        <ele>229.57</ele>
        <time>2020-10-23T06:07:38Z</time>
      </trkpt>
      <trkpt lat="43.32267" lon="2.42132">
        <ele>228.34</ele>
        <time>2020-10-23T06:07:46Z</time>
      </trkpt>
      <trkpt lat="43.32278" lon="2.4216">
        <ele>225.99</ele>
        <time>2020-10-23T06:07:55Z</time>
      </trkpt>
      <trkpt lat="43.32283" lon="2.42189">
        <ele>225.98</ele>
        <time>2020-10-23T06:08:06Z</time>
      </trkpt>
      <trkpt lat="43.32276" lon="2.42215">
        <ele>228.3</ele>
        <time>2020-10-23T06:08:18Z</time>
      </trkpt>
      <trkpt lat="43.32282" lon="2.42238">
        <ele>231.4</ele>
        <time>2020-10-23T06:08:31Z</time>
      </trkpt>
      <trkpt lat="43.32287" lon="2.42265">
        <ele>234.3</ele>
        <time>2020-10-23T06:08:45Z</time>
      </trkpt>
      <trkpt lat="43.32289" lon="2.423">
        <ele>237.52</ele>
        <time>2020-10-23T06:08:58Z</time>
      </trkpt>
      <trkpt lat="43.323" lon="2.42329">
        <ele>239.5</ele>
        <time>2020-10-23T06:09:12Z</time>
      </trkpt>
      <trkpt lat="43.32315" lon="2.42351">
        <ele>241.85</ele>
        <time>2020-10-23T06:09:25Z</time>
      </trkpt>
      <trkpt lat="43.32325" lon="2.42387">
        <ele>243.78</ele>
        <time>2020-10-23T06:09:36Z</time>
      </trkpt>
      <trkpt lat="43.32335" lon="2.42416">
        <ele>246.41</ele>
        <time>2020-10-23T06:09:49Z</time>
      </trkpt>
      <trkpt lat="43.32345" lon="2.42447">
        <ele>249.4</ele>
        <time>2020-10-23T06:10:02Z</time>
      </trkpt>
      <trkpt lat="43.32358" lon="2.42474">
        <ele>251.96</ele>
        <time>2020-10-23T06:10:14Z</time>
      </trkpt>
      <trkpt lat="43.32378" lon="2.42498">
        <ele>253.8</ele>
        <time>2020-10-23T06:10:26Z</time>
      </trkpt>
      <trkpt lat="43.32384" lon="2.42533">
        <ele>255.5</ele>
        <time>2020-10-23T06:10:39Z</time>
      </trkpt>
      <trkpt lat="43.32391" lon="2.42562">
        <ele>256.63</ele>
        <time>2020-10-23T06:10:48Z</time>
      </trkpt>
      <trkpt lat="43.324" lon="2.42593">
        <ele>258.47</ele>
        <time>2020-10-23T06:10:58Z</time>
      </trkpt>
      <trkpt lat="43.32416" lon="2.42603">
        <ele>259.81</ele>
        <time>2020-10-23T06:11:11Z</time>
      </trkpt>
      <trkpt lat="43.32429" lon="2.42581">
        <ele>261.57</ele>
        <time>2020-10-23T06:11:23Z</time>
      </trkpt>
      <trkpt lat="43.3244" lon="2.42558">
        <ele>262.16</ele>
        <time>2020-10-23T06:11:33Z</time>
      </trkpt>
      <trkpt lat="43.32445" lon="2.42533">
        <ele>262.97</ele>
        <time>2020-10-23T06:11:42Z</time>
      </trkpt>
      <trkpt lat="43.32447" lon="2.42506">
        <ele>263.3</ele>
        <time>2020-10-23T06:11:51Z</time>
      </trkpt>
      <trkpt lat="43.32445" lon="2.42479">
        <ele>263.35</ele>
        <time>2020-10-23T06:12:06Z</time>
      </trkpt>
      <trkpt lat="43.32436" lon="2.42438">
        <ele>258.88</ele>
        <time>2020-10-23T06:12:32Z</time>
      </trkpt>
      <trkpt lat="43.32423" lon="2.42386">
        <ele>256.24</ele>
        <time>2020-10-23T06:12:49Z</time>
      </trkpt>
      <trkpt lat="43.32432" lon="2.42344">
        <ele>257.64</ele>
        <time>2020-10-23T06:13:06Z</time>
      </trkpt>
      <trkpt lat="43.32459" lon="2.42343">
        <ele>262.04</ele>
        <time>2020-10-23T06:13:27Z</time>
      </trkpt>
      <trkpt lat="43.32474" lon="2.42363">
        <ele>266.47</ele>
        <time>2020-10-23T06:13:49Z</time>
      </trkpt>
      <trkpt lat="43.32493" lon="2.42415">
        <ele>272.23</ele>
        <time>2020-10-23T06:14:20Z</time>
      </trkpt>
      <trkpt lat="43.32519" lon="2.4248">
        <ele>278.5</ele>
        <time>2020-10-23T06:14:55Z</time>
      </trkpt>
      <trkpt lat="43.32529" lon="2.42522">
        <ele>283.27</ele>
        <time>2020-10-23T06:15:18Z</time>
      </trkpt>
      <trkpt lat="43.32538" lon="2.42551">
        <ele>284.96</ele>
        <time>2020-10-23T06:15:29Z</time>
      </trkpt>
      <trkpt lat="43.32546" lon="2.42579">
        <ele>285.61</ele>
        <time>2020-10-23T06:15:38Z</time>
      </trkpt>
      <trkpt lat="43.32551" lon="2.42612">
        <ele>286.76</ele>
        <time>2020-10-23T06:15:48Z</time>
      </trkpt>
      <trkpt lat="43.32556" lon="2.42647">
        <ele>289.34</ele>
        <time>2020-10-23T06:15:58Z</time>
      </trkpt>
      <trkpt lat="43.3256" lon="2.42682">
        <ele>291.61</ele>
        <time>2020-10-23T06:16:09Z</time>
      </trkpt>
      <trkpt lat="43.32563" lon="2.42713">
        <ele>292.32</ele>
        <time>2020-10-23T06:16:19Z</time>
      </trkpt>
      <trkpt lat="43.32562" lon="2.42747">
        <ele>291.78</ele>
        <time>2020-10-23T06:16:29Z</time>
      </trkpt>
      <trkpt lat="43.32562" lon="2.42783">
        <ele>290.87</ele>
        <time>2020-10-23T06:16:38Z</time>
      </trkpt>
      <trkpt lat="43.32565" lon="2.42814">
        <ele>290.05</ele>
        <time>2020-10-23T06:16:47Z</time>
      </trkpt>
      <trkpt lat="43.32572" lon="2.42844">
        <ele>289.96</ele>
        <time>2020-10-23T06:16:58Z</time>
      </trkpt>
      <trkpt lat="43.32583" lon="2.42877">
        <ele>290.43</ele>
        <time>2020-10-23T06:17:09Z</time>
      </trkpt>
      <trkpt lat="43.32587" lon="2.42908">
        <ele>290.96</ele>
        <time>2020-10-23T06:17:20Z</time>
      </trkpt>
      <trkpt lat="43.32594" lon="2.42944">
        <ele>292.09</ele>
        <time>2020-10-23T06:17:31Z</time>
      </trkpt>
      <trkpt lat="43.32601" lon="2.42976">
        <ele>293.04</ele>
        <time>2020-10-23T06:17:41Z</time>
      </trkpt>
      <trkpt lat="43.3261" lon="2.43004">
        <ele>293.84</ele>
        <time>2020-10-23T06:17:50Z</time>
      </trkpt>
      <trkpt lat="43.32614" lon="2.43041">
        <ele>293.11</ele>
        <time>2020-10-23T06:17:59Z</time>
      </trkpt>
      <trkpt lat="43.32625" lon="2.43076">
        <ele>294.22</ele>
        <time>2020-10-23T06:18:12Z</time>
      </trkpt>
      <trkpt lat="43.32646" lon="2.43095">
        <ele>296.81</ele>
        <time>2020-10-23T06:18:26Z</time>
      </trkpt>
      <trkpt lat="43.32668" lon="2.43085">
        <ele>301.03</ele>
        <time>2020-10-23T06:18:49Z</time>
      </trkpt>
      <trkpt lat="43.32692" lon="2.43096">
        <ele>302.73</ele>
        <time>2020-10-23T06:19:00Z</time>
      </trkpt>
      <trkpt lat="43.32715" lon="2.4311">
        <ele>306.03</ele>
        <time>2020-10-23T06:19:19Z</time>
      </trkpt>
      <trkpt lat="43.3274" lon="2.43119">
        <ele>309.25</ele>
        <time>2020-10-23T06:19:37Z</time>
      </trkpt>
      <trkpt lat="43.32767" lon="2.43117">
        <ele>311.22</ele>
        <time>2020-10-23T06:19:51Z</time>
      </trkpt>
      <trkpt lat="43.32784" lon="2.43134">
        <ele>312.25</ele>
        <time>2020-10-23T06:20:02Z</time>
      </trkpt>
      <trkpt lat="43.32802" lon="2.43135">
        <ele>312.99</ele>
        <time>2020-10-23T06:20:13Z</time>
      </trkpt>
      <trkpt lat="43.32824" lon="2.43141">
        <ele>314.56</ele>
        <time>2020-10-23T06:20:25Z</time>
      </trkpt>
      <trkpt lat="43.32846" lon="2.43138">
        <ele>316.03</ele>
        <time>2020-10-23T06:20:37Z</time>
      </trkpt>
      <trkpt lat="43.32863" lon="2.43153">
        <ele>318.13</ele>
        <time>2020-10-23T06:20:52Z</time>
      </trkpt>
      <trkpt lat="43.32877" lon="2.43177">
        <ele>319.24</ele>
        <time>2020-10-23T06:21:04Z</time>
      </trkpt>
      <trkpt lat="43.32891" lon="2.43203">
        <ele>320.08</ele>
        <time>2020-10-23T06:21:16Z</time>
      </trkpt>
      <trkpt lat="43.32904" lon="2.43233">
        <ele>320.49</ele>
        <time>2020-10-23T06:21:27Z</time>
      </trkpt>
      <trkpt lat="43.32922" lon="2.43259">
        <ele>321.3</ele>
        <time>2020-10-23T06:21:39Z</time>
      </trkpt>
      <trkpt lat="43.32938" lon="2.43283">
        <ele>322.56</ele>
        <time>2020-10-23T06:21:49Z</time>
      </trkpt>
      <trkpt lat="43.32951" lon="2.43313">
        <ele>323.49</ele>
        <time>2020-10-23T06:21:59Z</time>
      </trkpt>
      <trkpt lat="43.3296" lon="2.43341">
        <ele>324.25</ele>
        <time>2020-10-23T06:22:09Z</time>
      </trkpt>
      <trkpt lat="43.32973" lon="2.43369">
        <ele>325.04</ele>
        <time>2020-10-23T06:22:19Z</time>
      </trkpt>
      <trkpt lat="43.32985" lon="2.43397">
        <ele>325.32</ele>
        <time>2020-10-23T06:22:28Z</time>
      </trkpt>
      <trkpt lat="43.32997" lon="2.43434">
        <ele>326.54</ele>
        <time>2020-10-23T06:22:38Z</time>
      </trkpt>
      <trkpt lat="43.33004" lon="2.43473">
        <ele>329.17</ele>
        <time>2020-10-23T06:22:58Z</time>
      </trkpt>
      <trkpt lat="43.33016" lon="2.43499">
        <ele>330.86</ele>
        <time>2020-10-23T06:23:14Z</time>
      </trkpt>
      <trkpt lat="43.33031" lon="2.43535">
        <ele>332.62</ele>
        <time>2020-10-23T06:23:25Z</time>
      </trkpt>
      <trkpt lat="43.33036" lon="2.43566">
        <ele>333.46</ele>
        <time>2020-10-23T06:23:35Z</time>
      </trkpt>
      <trkpt lat="43.33046" lon="2.43601">
        <ele>334.03</ele>
        <time>2020-10-23T06:23:46Z</time>
      </trkpt>
      <trkpt lat="43.33061" lon="2.43625">
        <ele>335.19</ele>
        <time>2020-10-23T06:23:55Z</time>
      </trkpt>
      <trkpt lat="43.33075" lon="2.43646">
        <ele>335.31</ele>
        <time>2020-10-23T06:24:05Z</time>
      </trkpt>
      <trkpt lat="43.3308" lon="2.4368">
        <ele>335.31</ele>
        <time>2020-10-23T06:24:22Z</time>
      </trkpt>
      <trkpt lat="43.3308" lon="2.43708">
        <ele>335.29</ele>
        <time>2020-10-23T06:24:30Z</time>
      </trkpt>
      <trkpt lat="43.33082" lon="2.43735">
        <ele>335.37</ele>
        <time>2020-10-23T06:24:38Z</time>
      </trkpt>
      <trkpt lat="43.33088" lon="2.4376">
        <ele>335.74</ele>
        <time>2020-10-23T06:24:47Z</time>
      </trkpt>
      <trkpt lat="43.33102" lon="2.43782">
        <ele>336.56</ele>
        <time>2020-10-23T06:24:55Z</time>
      </trkpt>
      <trkpt lat="43.33117" lon="2.43804">
        <ele>337.6</ele>
        <time>2020-10-23T06:25:04Z</time>
      </trkpt>
      <trkpt lat="43.33135" lon="2.43822">
        <ele>339.53</ele>
        <time>2020-10-23T06:25:13Z</time>
      </trkpt>
      <trkpt lat="43.33148" lon="2.43844">
        <ele>341.53</ele>
        <time>2020-10-23T06:25:23Z</time>
      </trkpt>
      <trkpt lat="43.33163" lon="2.43861">
        <ele>343.01</ele>
        <time>2020-10-23T06:25:32Z</time>
      </trkpt>
      <trkpt lat="43.33177" lon="2.43882">
        <ele>344.68</ele>
        <time>2020-10-23T06:25:42Z</time>
      </trkpt>
      <trkpt lat="43.33191" lon="2.43902">
        <ele>346.68</ele>
        <time>2020-10-23T06:25:52Z</time>
      </trkpt>
      <trkpt lat="43.33205" lon="2.43922">
        <ele>348.22</ele>
        <time>2020-10-23T06:26:02Z</time>
      </trkpt>
      <trkpt lat="43.33216" lon="2.43946">
        <ele>349.07</ele>
        <time>2020-10-23T06:26:11Z</time>
      </trkpt>
      <trkpt lat="43.33227" lon="2.4397">
        <ele>348.83</ele>
        <time>2020-10-23T06:26:19Z</time>
      </trkpt>
      <trkpt lat="43.33237" lon="2.43993">
        <ele>348.44</ele>
        <time>2020-10-23T06:26:27Z</time>
      </trkpt>
      <trkpt lat="43.33247" lon="2.4402">
        <ele>347.73</ele>
        <time>2020-10-23T06:26:35Z</time>
      </trkpt>
      <trkpt lat="43.33253" lon="2.44049">
        <ele>347.2</ele>
        <time>2020-10-23T06:26:43Z</time>
      </trkpt>
      <trkpt lat="43.33259" lon="2.44077">
        <ele>346.88</ele>
        <time>2020-10-23T06:26:51Z</time>
      </trkpt>
      <trkpt lat="43.33253" lon="2.44106">
        <ele>346.25</ele>
        <time>2020-10-23T06:27:00Z</time>
      </trkpt>
      <trkpt lat="43.33253" lon="2.44133">
        <ele>345.34</ele>
        <time>2020-10-23T06:27:08Z</time>
      </trkpt>
      <trkpt lat="43.33259" lon="2.44159">
        <ele>344.96</ele>
        <time>2020-10-23T06:27:17Z</time>
      </trkpt>
      <trkpt lat="43.3327" lon="2.44188">
        <ele>345.5</ele>
        <time>2020-10-23T06:27:27Z</time>
      </trkpt>
      <trkpt lat="43.33289" lon="2.44199">
        <ele>345.59</ele>
        <time>2020-10-23T06:27:36Z</time>
      </trkpt>
      <trkpt lat="43.33309" lon="2.4419">
        <ele>346.28</ele>
        <time>2020-10-23T06:27:45Z</time>
      </trkpt>
      <trkpt lat="43.33329" lon="2.4418">
        <ele>346.7</ele>
        <time>2020-10-23T06:27:55Z</time>
      </trkpt>
      <trkpt lat="43.33348" lon="2.44169">
        <ele>347.4</ele>
        <time>2020-10-23T06:28:05Z</time>
      </trkpt>
      <trkpt lat="43.33371" lon="2.44158">
        <ele>348.6</ele>
        <time>2020-10-23T06:28:16Z</time>
      </trkpt>
      <trkpt lat="43.33397" lon="2.44161">
        <ele>350.38</ele>
        <time>2020-10-23T06:28:26Z</time>
      </trkpt>
      <trkpt lat="43.33413" lon="2.44178">
        <ele>352.14</ele>
        <time>2020-10-23T06:28:36Z</time>
      </trkpt>
      <trkpt lat="43.33429" lon="2.44195">
        <ele>354.19</ele>
        <time>2020-10-23T06:28:46Z</time>
      </trkpt>
      <trkpt lat="43.33445" lon="2.44212">
        <ele>356.03</ele>
        <time>2020-10-23T06:28:56Z</time>
      </trkpt>
      <trkpt lat="43.33459" lon="2.44233">
        <ele>359.14</ele>
        <time>2020-10-23T06:29:08Z</time>
      </trkpt>
      <trkpt lat="43.33473" lon="2.44254">
        <ele>361.12</ele>
        <time>2020-10-23T06:29:19Z</time>
      </trkpt>
      <trkpt lat="43.33484" lon="2.44279">
        <ele>362.89</ele>
        <time>2020-10-23T06:29:30Z</time>
      </trkpt>
      <trkpt lat="43.33491" lon="2.44306">
        <ele>365.15</ele>
        <time>2020-10-23T06:29:42Z</time>
      </trkpt>
      <trkpt lat="43.335" lon="2.44334">
        <ele>366.58</ele>
        <time>2020-10-23T06:29:53Z</time>
      </trkpt>
      <trkpt lat="43.33513" lon="2.4436">
        <ele>367.87</ele>
        <time>2020-10-23T06:30:05Z</time>
      </trkpt>
      <trkpt lat="43.3353" lon="2.4438">
        <ele>368.76</ele>
        <time>2020-10-23T06:30:16Z</time>
      </trkpt>
      <trkpt lat="43.3355" lon="2.44395">
        <ele>369.99</ele>
        <time>2020-10-23T06:30:29Z</time>
      </trkpt>
      <trkpt lat="43.33575" lon="2.44404">
        <ele>371.54</ele>
        <time>2020-10-23T06:30:42Z</time>
      </trkpt>
      <trkpt lat="43.33578" lon="2.44426">
        <ele>371.45</ele>
        <time>2020-10-23T06:30:52Z</time>
      </trkpt>
      <trkpt lat="43.33577" lon="2.44456">
        <ele>370.46</ele>
        <time>2020-10-23T06:32:05Z</time>
      </trkpt>
      <trkpt lat="43.33575" lon="2.44483">
        <ele>370.22</ele>
        <time>2020-10-23T06:32:14Z</time>
      </trkpt>
      <trkpt lat="43.33575" lon="2.4451">
        <ele>369.67</ele>
        <time>2020-10-23T06:32:22Z</time>
      </trkpt>
      <trkpt lat="43.33578" lon="2.44538">
        <ele>369.03</ele>
        <time>2020-10-23T06:32:31Z</time>
      </trkpt>
      <trkpt lat="43.33583" lon="2.44568">
        <ele>368.16</ele>
        <time>2020-10-23T06:32:39Z</time>
      </trkpt>
      <trkpt lat="43.33592" lon="2.44594">
        <ele>367.34</ele>
        <time>2020-10-23T06:32:47Z</time>
      </trkpt>
      <trkpt lat="43.33609" lon="2.44611">
        <ele>368.5</ele>
        <time>2020-10-23T06:32:56Z</time>
      </trkpt>
      <trkpt lat="43.33625" lon="2.44628">
        <ele>369.08</ele>
        <time>2020-10-23T06:33:04Z</time>
      </trkpt>
      <trkpt lat="43.33641" lon="2.44643">
        <ele>368.58</ele>
        <time>2020-10-23T06:33:11Z</time>
      </trkpt>
      <trkpt lat="43.33658" lon="2.44656">
        <ele>367.62</ele>
        <time>2020-10-23T06:33:20Z</time>
      </trkpt>
      <trkpt lat="43.33679" lon="2.44654">
        <ele>367.68</ele>
        <time>2020-10-23T06:33:30Z</time>
      </trkpt>
      <trkpt lat="43.33706" lon="2.44645">
        <ele>370.42</ele>
        <time>2020-10-23T06:33:45Z</time>
      </trkpt>
      <trkpt lat="43.33708" lon="2.44667">
        <ele>371.32</ele>
        <time>2020-10-23T06:33:56Z</time>
      </trkpt>
      <trkpt lat="43.33702" lon="2.44696">
        <ele>370.74</ele>
        <time>2020-10-23T06:34:05Z</time>
      </trkpt>
      <trkpt lat="43.33702" lon="2.44727">
        <ele>371.2</ele>
        <time>2020-10-23T06:34:15Z</time>
      </trkpt>
      <trkpt lat="43.33706" lon="2.44759">
        <ele>373.03</ele>
        <time>2020-10-23T06:34:25Z</time>
      </trkpt>
      <trkpt lat="43.33714" lon="2.44785">
        <ele>374.58</ele>
        <time>2020-10-23T06:34:34Z</time>
      </trkpt>
      <trkpt lat="43.33719" lon="2.44814">
        <ele>376.11</ele>
        <time>2020-10-23T06:34:45Z</time>
      </trkpt>
      <trkpt lat="43.33732" lon="2.44814">
        <ele>377.52</ele>
        <time>2020-10-23T06:35:24Z</time>
      </trkpt>
      <trkpt lat="43.33743" lon="2.4479">
        <ele>380.81</ele>
        <time>2020-10-23T06:35:39Z</time>
      </trkpt>
      <trkpt lat="43.33751" lon="2.44763">
        <ele>383.7</ele>
        <time>2020-10-23T06:35:54Z</time>
      </trkpt>
      <trkpt lat="43.33762" lon="2.4474">
        <ele>387.44</ele>
        <time>2020-10-23T06:36:08Z</time>
      </trkpt>
      <trkpt lat="43.33773" lon="2.44709">
        <ele>392.01</ele>
        <time>2020-10-23T06:36:26Z</time>
      </trkpt>
      <trkpt lat="43.33781" lon="2.44681">
        <ele>395.97</ele>
        <time>2020-10-23T06:36:43Z</time>
      </trkpt>
      <trkpt lat="43.33789" lon="2.44652">
        <ele>398.53</ele>
        <time>2020-10-23T06:36:59Z</time>
      </trkpt>
      <trkpt lat="43.33802" lon="2.44627">
        <ele>400.82</ele>
        <time>2020-10-23T06:37:13Z</time>
      </trkpt>
      <trkpt lat="43.33818" lon="2.446">
        <ele>403.41</ele>
        <time>2020-10-23T06:37:27Z</time>
      </trkpt>
      <trkpt lat="43.33829" lon="2.44567">
        <ele>406.66</ele>
        <time>2020-10-23T06:37:41Z</time>
      </trkpt>
      <trkpt lat="43.33821" lon="2.44533">
        <ele>409.77</ele>
        <time>2020-10-23T06:37:54Z</time>
      </trkpt>
      <trkpt lat="43.33813" lon="2.44493">
        <ele>411.95</ele>
        <time>2020-10-23T06:38:07Z</time>
      </trkpt>
      <trkpt lat="43.33818" lon="2.44464">
        <ele>414.21</ele>
        <time>2020-10-23T06:38:19Z</time>
      </trkpt>
      <trkpt lat="43.33834" lon="2.44452">
        <ele>416.76</ele>
        <time>2020-10-23T06:38:33Z</time>
      </trkpt>
      <trkpt lat="43.33854" lon="2.44462">
        <ele>418.14</ele>
        <time>2020-10-23T06:38:46Z</time>
      </trkpt>
      <trkpt lat="43.33878" lon="2.44474">
        <ele>419.73</ele>
        <time>2020-10-23T06:38:59Z</time>
      </trkpt>
      <trkpt lat="43.339" lon="2.44486">
        <ele>421.49</ele>
        <time>2020-10-23T06:39:10Z</time>
      </trkpt>
      <trkpt lat="43.33923" lon="2.44494">
        <ele>423.81</ele>
        <time>2020-10-23T06:39:23Z</time>
      </trkpt>
      <trkpt lat="43.33947" lon="2.44489">
        <ele>425.48</ele>
        <time>2020-10-23T06:39:36Z</time>
      </trkpt>
      <trkpt lat="43.3397" lon="2.44492">
        <ele>426.18</ele>
        <time>2020-10-23T06:39:46Z</time>
      </trkpt>
      <trkpt lat="43.33993" lon="2.44495">
        <ele>425.97</ele>
        <time>2020-10-23T06:39:56Z</time>
      </trkpt>
      <trkpt lat="43.34015" lon="2.44494">
        <ele>425.17</ele>
        <time>2020-10-23T06:40:06Z</time>
      </trkpt>
      <trkpt lat="43.34038" lon="2.44493">
        <ele>424.49</ele>
        <time>2020-10-23T06:40:15Z</time>
      </trkpt>
      <trkpt lat="43.3406" lon="2.44493">
        <ele>424.31</ele>
        <time>2020-10-23T06:40:24Z</time>
      </trkpt>
      <trkpt lat="43.34081" lon="2.44497">
        <ele>424.69</ele>
        <time>2020-10-23T06:40:32Z</time>
      </trkpt>
      <trkpt lat="43.34101" lon="2.44502">
        <ele>425.05</ele>
        <time>2020-10-23T06:40:40Z</time>
      </trkpt>
      <trkpt lat="43.34122" lon="2.44503">
        <ele>425.32</ele>
        <time>2020-10-23T06:40:48Z</time>
      </trkpt>
      <trkpt lat="43.34145" lon="2.44505">
        <ele>425.91</ele>
        <time>2020-10-23T06:40:57Z</time>
      </trkpt>
      <trkpt lat="43.34166" lon="2.44503">
        <ele>426.73</ele>
        <time>2020-10-23T06:41:05Z</time>
      </trkpt>
      <trkpt lat="43.34183" lon="2.44495">
        <ele>427.67</ele>
        <time>2020-10-23T06:41:13Z</time>
      </trkpt>
      <trkpt lat="43.34209" lon="2.44495">
        <ele>428.98</ele>
        <time>2020-10-23T06:41:26Z</time>
      </trkpt>
      <trkpt lat="43.34231" lon="2.44506">
        <ele>430.33</ele>
        <time>2020-10-23T06:41:37Z</time>
      </trkpt>
      <trkpt lat="43.3425" lon="2.44522">
        <ele>432</ele>
        <time>2020-10-23T06:41:48Z</time>
      </trkpt>
      <trkpt lat="43.3425" lon="2.44547">
        <ele>433.43</ele>
        <time>2020-10-23T06:42:01Z</time>
      </trkpt>
      <trkpt lat="43.34243" lon="2.44581">
        <ele>431.91</ele>
        <time>2020-10-23T06:42:14Z</time>
      </trkpt>
      <trkpt lat="43.34238" lon="2.44626">
        <ele>429.3</ele>
        <time>2020-10-23T06:42:28Z</time>
      </trkpt>
      <trkpt lat="43.34231" lon="2.4466">
        <ele>427.54</ele>
        <time>2020-10-23T06:42:38Z</time>
      </trkpt>
      <trkpt lat="43.34215" lon="2.44704">
        <ele>426.26</ele>
        <time>2020-10-23T06:42:53Z</time>
      </trkpt>
      <trkpt lat="43.34194" lon="2.44744">
        <ele>425.83</ele>
        <time>2020-10-23T06:43:07Z</time>
      </trkpt>
      <trkpt lat="43.34178" lon="2.44782">
        <ele>425.02</ele>
        <time>2020-10-23T06:43:17Z</time>
      </trkpt>
      <trkpt lat="43.34165" lon="2.44822">
        <ele>424.89</ele>
        <time>2020-10-23T06:43:28Z</time>
      </trkpt>
      <trkpt lat="43.34157" lon="2.44858">
        <ele>424.99</ele>
        <time>2020-10-23T06:43:38Z</time>
      </trkpt>
      <trkpt lat="43.34159" lon="2.44893">
        <ele>423.96</ele>
        <time>2020-10-23T06:43:47Z</time>
      </trkpt>
      <trkpt lat="43.34166" lon="2.44923">
        <ele>421.52</ele>
        <time>2020-10-23T06:43:56Z</time>
      </trkpt>
      <trkpt lat="43.3417" lon="2.4496">
        <ele>417.58</ele>
        <time>2020-10-23T06:44:07Z</time>
      </trkpt>
      <trkpt lat="43.34172" lon="2.44996">
        <ele>415.91</ele>
        <time>2020-10-23T06:44:17Z</time>
      </trkpt>
      <trkpt lat="43.34183" lon="2.45029">
        <ele>414.08</ele>
        <time>2020-10-23T06:44:27Z</time>
      </trkpt>
      <trkpt lat="43.34193" lon="2.45062">
        <ele>413.38</ele>
        <time>2020-10-23T06:44:38Z</time>
      </trkpt>
      <trkpt lat="43.34204" lon="2.45093">
        <ele>413.37</ele>
        <time>2020-10-23T06:44:47Z</time>
      </trkpt>
      <trkpt lat="43.34221" lon="2.45128">
        <ele>410.96</ele>
        <time>2020-10-23T06:45:12Z</time>
      </trkpt>
      <trkpt lat="43.34247" lon="2.45114">
        <ele>406.01</ele>
        <time>2020-10-23T06:45:30Z</time>
      </trkpt>
      <trkpt lat="43.34282" lon="2.45099">
        <ele>399.56</ele>
        <time>2020-10-23T06:45:53Z</time>
      </trkpt>
      <trkpt lat="43.34323" lon="2.45094">
        <ele>390.91</ele>
        <time>2020-10-23T06:46:19Z</time>
      </trkpt>
      <trkpt lat="43.34335" lon="2.45107">
        <ele>382.18</ele>
        <time>2020-10-23T06:46:52Z</time>
      </trkpt>
      <trkpt lat="43.34358" lon="2.45122">
        <ele>374.67</ele>
        <time>2020-10-23T06:47:19Z</time>
      </trkpt>
      <trkpt lat="43.34385" lon="2.45138">
        <ele>367.42</ele>
        <time>2020-10-23T06:47:47Z</time>
      </trkpt>
      <trkpt lat="43.34397" lon="2.45177">
        <ele>361.44</ele>
        <time>2020-10-23T06:48:15Z</time>
      </trkpt>
      <trkpt lat="43.34393" lon="2.45228">
        <ele>353.79</ele>
        <time>2020-10-23T06:48:42Z</time>
      </trkpt>
      <trkpt lat="43.34396" lon="2.45264">
        <ele>348.89</ele>
        <time>2020-10-23T06:49:02Z</time>
      </trkpt>
      <trkpt lat="43.34414" lon="2.45297">
        <ele>342.8</ele>
        <time>2020-10-23T06:49:25Z</time>
      </trkpt>
      <trkpt lat="43.34435" lon="2.45338">
        <ele>338.03</ele>
        <time>2020-10-23T06:49:45Z</time>
      </trkpt>
      <trkpt lat="43.34456" lon="2.45377">
        <ele>334.91</ele>
        <time>2020-10-23T06:50:04Z</time>
      </trkpt>
      <trkpt lat="43.34481" lon="2.45398">
        <ele>328.08</ele>
        <time>2020-10-23T06:50:31Z</time>
      </trkpt>
      <trkpt lat="43.34529" lon="2.45458">
        <ele>315.11</ele>
        <time>2020-10-23T06:51:08Z</time>
      </trkpt>
      <trkpt lat="43.3455" lon="2.45506">
        <ele>308.79</ele>
        <time>2020-10-23T06:51:26Z</time>
      </trkpt>
      <trkpt lat="43.34562" lon="2.4554">
        <ele>305.36</ele>
        <time>2020-10-23T06:51:56Z</time>
      </trkpt>
      <trkpt lat="43.34573" lon="2.45571">
        <ele>300.95</ele>
        <time>2020-10-23T06:52:15Z</time>
      </trkpt>
      <trkpt lat="43.34596" lon="2.45585">
        <ele>295.45</ele>
        <time>2020-10-23T06:52:40Z</time>
      </trkpt>
      <trkpt lat="43.3463" lon="2.45611">
        <ele>285</ele>
        <time>2020-10-23T06:53:12Z</time>
      </trkpt>
      <trkpt lat="43.34657" lon="2.45642">
        <ele>277.14</ele>
        <time>2020-10-23T06:53:35Z</time>
      </trkpt>
      <trkpt lat="43.34682" lon="2.45667">
        <ele>269.47</ele>
        <time>2020-10-23T06:53:58Z</time>
      </trkpt>
      <trkpt lat="43.34708" lon="2.457">
        <ele>262.36</ele>
        <time>2020-10-23T06:54:21Z</time>
      </trkpt>
      <trkpt lat="43.34726" lon="2.45728">
        <ele>258.11</ele>
        <time>2020-10-23T06:54:35Z</time>
      </trkpt>
      <trkpt lat="43.34746" lon="2.45751">
        <ele>257.67</ele>
        <time>2020-10-23T06:54:44Z</time>
      </trkpt>
      <trkpt lat="43.34756" lon="2.4578">
        <ele>257.58</ele>
        <time>2020-10-23T06:54:53Z</time>
      </trkpt>
      <trkpt lat="43.3477" lon="2.45803">
        <ele>257.9</ele>
        <time>2020-10-23T06:55:02Z</time>
      </trkpt>
      <trkpt lat="43.3479" lon="2.4582">
        <ele>258.22</ele>
        <time>2020-10-23T06:55:11Z</time>
      </trkpt>
      <trkpt lat="43.34813" lon="2.45824">
        <ele>258.34</ele>
        <time>2020-10-23T06:55:20Z</time>
      </trkpt>
      <trkpt lat="43.34838" lon="2.45827">
        <ele>258.94</ele>
        <time>2020-10-23T06:55:29Z</time>
      </trkpt>
      <trkpt lat="43.34859" lon="2.45841">
        <ele>259.15</ele>
        <time>2020-10-23T06:55:37Z</time>
      </trkpt>
      <trkpt lat="43.34873" lon="2.45861">
        <ele>259.5</ele>
        <time>2020-10-23T06:55:45Z</time>
      </trkpt>
      <trkpt lat="43.34878" lon="2.45886">
        <ele>259.79</ele>
        <time>2020-10-23T06:55:53Z</time>
      </trkpt>
      <trkpt lat="43.34882" lon="2.45912">
        <ele>260.16</ele>
        <time>2020-10-23T06:56:01Z</time>
      </trkpt>
      <trkpt lat="43.34885" lon="2.45941">
        <ele>260.32</ele>
        <time>2020-10-23T06:56:10Z</time>
      </trkpt>
      <trkpt lat="43.34888" lon="2.45969">
        <ele>260.83</ele>
        <time>2020-10-23T06:56:18Z</time>
      </trkpt>
      <trkpt lat="43.34892" lon="2.45998">
        <ele>260.96</ele>
        <time>2020-10-23T06:56:27Z</time>
      </trkpt>
      <trkpt lat="43.34896" lon="2.46027">
        <ele>261.52</ele>
        <time>2020-10-23T06:56:36Z</time>
      </trkpt>
      <trkpt lat="43.34896" lon="2.46054">
        <ele>262.07</ele>
        <time>2020-10-23T06:56:44Z</time>
      </trkpt>
      <trkpt lat="43.349" lon="2.46084">
        <ele>262.08</ele>
        <time>2020-10-23T06:56:52Z</time>
      </trkpt>
      <trkpt lat="43.34903" lon="2.46112">
        <ele>262.6</ele>
        <time>2020-10-23T06:57:01Z</time>
      </trkpt>
      <trkpt lat="43.34908" lon="2.46141">
        <ele>263.02</ele>
        <time>2020-10-23T06:57:12Z</time>
      </trkpt>
      <trkpt lat="43.34923" lon="2.46175">
        <ele>263.14</ele>
        <time>2020-10-23T06:57:23Z</time>
      </trkpt>
      <trkpt lat="43.34944" lon="2.46207">
        <ele>263.33</ele>
        <time>2020-10-23T06:57:33Z</time>
      </trkpt>
      <trkpt lat="43.34963" lon="2.46226">
        <ele>263.6</ele>
        <time>2020-10-23T06:57:42Z</time>
      </trkpt>
      <trkpt lat="43.34982" lon="2.46236">
        <ele>263.76</ele>
        <time>2020-10-23T06:57:50Z</time>
      </trkpt>
      <trkpt lat="43.35001" lon="2.4625">
        <ele>263.83</ele>
        <time>2020-10-23T06:57:59Z</time>
      </trkpt>
      <trkpt lat="43.35022" lon="2.46257">
        <ele>263.9</ele>
        <time>2020-10-23T06:58:08Z</time>
      </trkpt>
      <trkpt lat="43.35046" lon="2.46259">
        <ele>263.98</ele>
        <time>2020-10-23T06:58:18Z</time>
      </trkpt>
      <trkpt lat="43.35078" lon="2.46276">
        <ele>264.19</ele>
        <time>2020-10-23T06:58:27Z</time>
      </trkpt>
      <trkpt lat="43.35101" lon="2.46283">
        <ele>264.59</ele>
        <time>2020-10-23T06:58:35Z</time>
      </trkpt>
      <trkpt lat="43.3512" lon="2.46285">
        <ele>264.94</ele>
        <time>2020-10-23T06:58:42Z</time>
      </trkpt>
      <trkpt lat="43.35141" lon="2.46284">
        <ele>265.32</ele>
        <time>2020-10-23T06:58:51Z</time>
      </trkpt>
      <trkpt lat="43.35163" lon="2.46281">
        <ele>265.81</ele>
        <time>2020-10-23T06:59:01Z</time>
      </trkpt>
      <trkpt lat="43.35181" lon="2.46266">
        <ele>267.14</ele>
        <time>2020-10-23T06:59:13Z</time>
      </trkpt>
      <trkpt lat="43.35204" lon="2.46256">
        <ele>270.24</ele>
        <time>2020-10-23T06:59:25Z</time>
      </trkpt>
      <trkpt lat="43.35227" lon="2.46243">
        <ele>274.66</ele>
        <time>2020-10-23T06:59:41Z</time>
      </trkpt>
      <trkpt lat="43.35252" lon="2.46228">
        <ele>280.09</ele>
        <time>2020-10-23T06:59:58Z</time>
      </trkpt>
      <trkpt lat="43.35276" lon="2.46213">
        <ele>284.96</ele>
        <time>2020-10-23T07:00:15Z</time>
      </trkpt>
      <trkpt lat="43.35301" lon="2.46195">
        <ele>289.98</ele>
        <time>2020-10-23T07:00:32Z</time>
      </trkpt>
      <trkpt lat="43.35325" lon="2.46181">
        <ele>294.01</ele>
        <time>2020-10-23T07:00:46Z</time>
      </trkpt>
      <trkpt lat="43.35345" lon="2.46169">
        <ele>297.58</ele>
        <time>2020-10-23T07:00:58Z</time>
      </trkpt>
      <trkpt lat="43.35365" lon="2.46162">
        <ele>301.99</ele>
        <time>2020-10-23T07:01:13Z</time>
      </trkpt>
      <trkpt lat="43.35388" lon="2.46151">
        <ele>306.1</ele>
        <time>2020-10-23T07:01:29Z</time>
      </trkpt>
      <trkpt lat="43.35409" lon="2.46144">
        <ele>310</ele>
        <time>2020-10-23T07:01:43Z</time>
      </trkpt>
      <trkpt lat="43.3543" lon="2.46137">
        <ele>314.35</ele>
        <time>2020-10-23T07:02:00Z</time>
      </trkpt>
      <trkpt lat="43.35453" lon="2.46129">
        <ele>319.27</ele>
        <time>2020-10-23T07:02:16Z</time>
      </trkpt>
      <trkpt lat="43.35476" lon="2.46122">
        <ele>323.26</ele>
        <time>2020-10-23T07:02:31Z</time>
      </trkpt>
      <trkpt lat="43.35498" lon="2.46107">
        <ele>327.05</ele>
        <time>2020-10-23T07:02:47Z</time>
      </trkpt>
      <trkpt lat="43.35519" lon="2.46095">
        <ele>331.23</ele>
        <time>2020-10-23T07:03:05Z</time>
      </trkpt>
      <trkpt lat="43.3554" lon="2.46084">
        <ele>334.93</ele>
        <time>2020-10-23T07:03:24Z</time>
      </trkpt>
      <trkpt lat="43.35562" lon="2.46075">
        <ele>338.23</ele>
        <time>2020-10-23T07:03:42Z</time>
      </trkpt>
      <trkpt lat="43.35584" lon="2.46063">
        <ele>341.81</ele>
        <time>2020-10-23T07:04:00Z</time>
      </trkpt>
      <trkpt lat="43.35606" lon="2.46047">
        <ele>345.08</ele>
        <time>2020-10-23T07:04:13Z</time>
      </trkpt>
      <trkpt lat="43.35624" lon="2.46032">
        <ele>348.49</ele>
        <time>2020-10-23T07:04:27Z</time>
      </trkpt>
      <trkpt lat="43.35638" lon="2.46011">
        <ele>351.62</ele>
        <time>2020-10-23T07:04:40Z</time>
      </trkpt>
      <trkpt lat="43.35651" lon="2.4599">
        <ele>355.23</ele>
        <time>2020-10-23T07:04:55Z</time>
      </trkpt>
      <trkpt lat="43.35664" lon="2.45967">
        <ele>358.53</ele>
        <time>2020-10-23T07:05:11Z</time>
      </trkpt>
      <trkpt lat="43.35672" lon="2.45942">
        <ele>362.31</ele>
        <time>2020-10-23T07:05:26Z</time>
      </trkpt>
      <trkpt lat="43.35681" lon="2.45917">
        <ele>365.47</ele>
        <time>2020-10-23T07:05:40Z</time>
      </trkpt>
      <trkpt lat="43.3569" lon="2.4589">
        <ele>369</ele>
        <time>2020-10-23T07:05:57Z</time>
      </trkpt>
      <trkpt lat="43.35701" lon="2.45864">
        <ele>372.68</ele>
        <time>2020-10-23T07:06:15Z</time>
      </trkpt>
      <trkpt lat="43.35704" lon="2.45836">
        <ele>376.4</ele>
        <time>2020-10-23T07:06:35Z</time>
      </trkpt>
      <trkpt lat="43.35711" lon="2.45804">
        <ele>380.48</ele>
        <time>2020-10-23T07:06:55Z</time>
      </trkpt>
      <trkpt lat="43.35721" lon="2.45774">
        <ele>383.93</ele>
        <time>2020-10-23T07:07:12Z</time>
      </trkpt>
      <trkpt lat="43.35728" lon="2.45745">
        <ele>387.26</ele>
        <time>2020-10-23T07:07:27Z</time>
      </trkpt>
      <trkpt lat="43.35732" lon="2.45714">
        <ele>390.97</ele>
        <time>2020-10-23T07:07:43Z</time>
      </trkpt>
      <trkpt lat="43.35742" lon="2.45689">
        <ele>393.92</ele>
        <time>2020-10-23T07:07:56Z</time>
      </trkpt>
      <trkpt lat="43.35744" lon="2.45659">
        <ele>396.97</ele>
        <time>2020-10-23T07:08:11Z</time>
      </trkpt>
      <trkpt lat="43.35751" lon="2.45633">
        <ele>400.15</ele>
        <time>2020-10-23T07:08:27Z</time>
      </trkpt>
      <trkpt lat="43.35765" lon="2.4561">
        <ele>402.88</ele>
        <time>2020-10-23T07:08:44Z</time>
      </trkpt>
      <trkpt lat="43.35788" lon="2.45608">
        <ele>404.34</ele>
        <time>2020-10-23T07:08:57Z</time>
      </trkpt>
      <trkpt lat="43.35807" lon="2.4562">
        <ele>404.78</ele>
        <time>2020-10-23T07:09:07Z</time>
      </trkpt>
      <trkpt lat="43.35822" lon="2.4564">
        <ele>405.33</ele>
        <time>2020-10-23T07:09:17Z</time>
      </trkpt>
      <trkpt lat="43.35837" lon="2.45659">
        <ele>405.68</ele>
        <time>2020-10-23T07:09:26Z</time>
      </trkpt>
      <trkpt lat="43.35851" lon="2.4568">
        <ele>406.17</ele>
        <time>2020-10-23T07:09:35Z</time>
      </trkpt>
      <trkpt lat="43.35864" lon="2.45701">
        <ele>406.93</ele>
        <time>2020-10-23T07:09:44Z</time>
      </trkpt>
      <trkpt lat="43.35881" lon="2.45715">
        <ele>407.78</ele>
        <time>2020-10-23T07:09:54Z</time>
      </trkpt>
      <trkpt lat="43.35901" lon="2.45724">
        <ele>408.5</ele>
        <time>2020-10-23T07:10:05Z</time>
      </trkpt>
      <trkpt lat="43.35924" lon="2.45714">
        <ele>409.16</ele>
        <time>2020-10-23T07:10:41Z</time>
      </trkpt>
      <trkpt lat="43.35934" lon="2.4572">
        <ele>409.79</ele>
        <time>2020-10-23T07:12:00Z</time>
      </trkpt>
      <trkpt lat="43.35912" lon="2.45721">
        <ele>409.94</ele>
        <time>2020-10-23T07:12:52Z</time>
      </trkpt>
      <trkpt lat="43.35893" lon="2.45716">
        <ele>409.81</ele>
        <time>2020-10-23T07:13:01Z</time>
      </trkpt>
      <trkpt lat="43.35874" lon="2.45705">
        <ele>409.96</ele>
        <time>2020-10-23T07:13:10Z</time>
      </trkpt>
      <trkpt lat="43.35859" lon="2.45683">
        <ele>409.46</ele>
        <time>2020-10-23T07:13:20Z</time>
      </trkpt>
      <trkpt lat="43.35842" lon="2.45659">
        <ele>408.7</ele>
        <time>2020-10-23T07:13:39Z</time>
      </trkpt>
      <trkpt lat="43.35826" lon="2.45637">
        <ele>408.18</ele>
        <time>2020-10-23T07:13:48Z</time>
      </trkpt>
      <trkpt lat="43.35809" lon="2.45618">
        <ele>407.66</ele>
        <time>2020-10-23T07:13:57Z</time>
      </trkpt>
      <trkpt lat="43.3579" lon="2.45606">
        <ele>407.32</ele>
        <time>2020-10-23T07:14:05Z</time>
      </trkpt>
      <trkpt lat="43.35772" lon="2.45586">
        <ele>408.38</ele>
        <time>2020-10-23T07:14:21Z</time>
      </trkpt>
      <trkpt lat="43.3575" lon="2.45563">
        <ele>415.09</ele>
        <time>2020-10-23T07:14:47Z</time>
      </trkpt>
      <trkpt lat="43.3574" lon="2.45528">
        <ele>420.98</ele>
        <time>2020-10-23T07:15:13Z</time>
      </trkpt>
      <trkpt lat="43.35769" lon="2.45514">
        <ele>422.02</ele>
        <time>2020-10-23T07:15:37Z</time>
      </trkpt>
      <trkpt lat="43.35802" lon="2.45533">
        <ele>425.55</ele>
        <time>2020-10-23T07:16:04Z</time>
      </trkpt>
      <trkpt lat="43.3583" lon="2.45553">
        <ele>430.52</ele>
        <time>2020-10-23T07:16:36Z</time>
      </trkpt>
      <trkpt lat="43.35853" lon="2.45581">
        <ele>436.07</ele>
        <time>2020-10-23T07:17:13Z</time>
      </trkpt>
      <trkpt lat="43.35848" lon="2.45536">
        <ele>438.83</ele>
        <time>2020-10-23T07:17:39Z</time>
      </trkpt>
      <trkpt lat="43.35832" lon="2.455">
        <ele>442.95</ele>
        <time>2020-10-23T07:18:02Z</time>
      </trkpt>
      <trkpt lat="43.3582" lon="2.45458">
        <ele>447.77</ele>
        <time>2020-10-23T07:18:28Z</time>
      </trkpt>
      <trkpt lat="43.35805" lon="2.45408">
        <ele>451.54</ele>
        <time>2020-10-23T07:18:55Z</time>
      </trkpt>
      <trkpt lat="43.35795" lon="2.4537">
        <ele>454.53</ele>
        <time>2020-10-23T07:19:17Z</time>
      </trkpt>
      <trkpt lat="43.35784" lon="2.4533">
        <ele>457</ele>
        <time>2020-10-23T07:19:35Z</time>
      </trkpt>
      <trkpt lat="43.35765" lon="2.453">
        <ele>460.28</ele>
        <time>2020-10-23T07:19:53Z</time>
      </trkpt>
      <trkpt lat="43.35753" lon="2.45274">
        <ele>464.65</ele>
        <time>2020-10-23T07:20:13Z</time>
      </trkpt>
      <trkpt lat="43.35761" lon="2.45248">
        <ele>470.7</ele>
        <time>2020-10-23T07:20:42Z</time>
      </trkpt>
      <trkpt lat="43.35761" lon="2.45209">
        <ele>476.51</ele>
        <time>2020-10-23T07:21:10Z</time>
      </trkpt>
      <trkpt lat="43.35759" lon="2.4516">
        <ele>481.97</ele>
        <time>2020-10-23T07:21:31Z</time>
      </trkpt>
      <trkpt lat="43.35753" lon="2.4513">
        <ele>486.25</ele>
        <time>2020-10-23T07:21:53Z</time>
      </trkpt>
      <trkpt lat="43.35736" lon="2.45101">
        <ele>490.4</ele>
        <time>2020-10-23T07:22:21Z</time>
      </trkpt>
      <trkpt lat="43.35719" lon="2.45088">
        <ele>489.66</ele>
        <time>2020-10-23T07:23:04Z</time>
      </trkpt>
      <trkpt lat="43.35724" lon="2.45072">
        <ele>487.97</ele>
        <time>2020-10-23T07:23:56Z</time>
      </trkpt>
      <trkpt lat="43.35726" lon="2.4504">
        <ele>485.69</ele>
        <time>2020-10-23T07:24:09Z</time>
      </trkpt>
      <trkpt lat="43.35725" lon="2.45013">
        <ele>483.03</ele>
        <time>2020-10-23T07:24:28Z</time>
      </trkpt>
      <trkpt lat="43.35731" lon="2.44981">
        <ele>481.89</ele>
        <time>2020-10-23T07:24:54Z</time>
      </trkpt>
      <trkpt lat="43.35747" lon="2.44958">
        <ele>480.28</ele>
        <time>2020-10-23T07:25:11Z</time>
      </trkpt>
      <trkpt lat="43.35759" lon="2.44932">
        <ele>478.39</ele>
        <time>2020-10-23T07:25:23Z</time>
      </trkpt>
      <trkpt lat="43.35771" lon="2.44901">
        <ele>477.18</ele>
        <time>2020-10-23T07:25:34Z</time>
      </trkpt>
      <trkpt lat="43.35779" lon="2.44868">
        <ele>476.64</ele>
        <time>2020-10-23T07:25:44Z</time>
      </trkpt>
      <trkpt lat="43.35782" lon="2.44837">
        <ele>476.25</ele>
        <time>2020-10-23T07:25:55Z</time>
      </trkpt>
      <trkpt lat="43.35759" lon="2.44795">
        <ele>472.14</ele>
        <time>2020-10-23T07:26:15Z</time>
      </trkpt>
      <trkpt lat="43.35728" lon="2.44781">
        <ele>469.76</ele>
        <time>2020-10-23T07:26:32Z</time>
      </trkpt>
      <trkpt lat="43.35704" lon="2.44802">
        <ele>466.56</ele>
        <time>2020-10-23T07:26:49Z</time>
      </trkpt>
      <trkpt lat="43.35672" lon="2.44825">
        <ele>460.36</ele>
        <time>2020-10-23T07:27:04Z</time>
      </trkpt>
      <trkpt lat="43.35645" lon="2.44839">
        <ele>455.23</ele>
        <time>2020-10-23T07:27:21Z</time>
      </trkpt>
      <trkpt lat="43.35615" lon="2.44858">
        <ele>451.98</ele>
        <time>2020-10-23T07:27:49Z</time>
      </trkpt>
      <trkpt lat="43.35589" lon="2.44868">
        <ele>449.85</ele>
        <time>2020-10-23T07:28:01Z</time>
      </trkpt>
      <trkpt lat="43.35575" lon="2.44899">
        <ele>444.85</ele>
        <time>2020-10-23T07:28:24Z</time>
      </trkpt>
      <trkpt lat="43.35558" lon="2.44926">
        <ele>438.61</ele>
        <time>2020-10-23T07:28:38Z</time>
      </trkpt>
      <trkpt lat="43.35537" lon="2.44943">
        <ele>435.95</ele>
        <time>2020-10-23T07:28:48Z</time>
      </trkpt>
      <trkpt lat="43.35515" lon="2.44961">
        <ele>433.51</ele>
        <time>2020-10-23T07:29:01Z</time>
      </trkpt>
      <trkpt lat="43.35485" lon="2.44986">
        <ele>433.74</ele>
        <time>2020-10-23T07:29:50Z</time>
      </trkpt>
      <trkpt lat="43.3546" lon="2.4499">
        <ele>433.65</ele>
        <time>2020-10-23T07:30:20Z</time>
      </trkpt>
      <trkpt lat="43.35413" lon="2.44975">
        <ele>424.18</ele>
        <time>2020-10-23T07:30:53Z</time>
      </trkpt>
      <trkpt lat="43.35371" lon="2.44934">
        <ele>423.94</ele>
        <time>2020-10-23T07:31:20Z</time>
      </trkpt>
      <trkpt lat="43.35335" lon="2.44914">
        <ele>426.2</ele>
        <time>2020-10-23T07:31:42Z</time>
      </trkpt>
      <trkpt lat="43.35308" lon="2.44911">
        <ele>424.23</ele>
        <time>2020-10-23T07:32:00Z</time>
      </trkpt>
      <trkpt lat="43.3528" lon="2.44903">
        <ele>425.09</ele>
        <time>2020-10-23T07:32:23Z</time>
      </trkpt>
      <trkpt lat="43.35252" lon="2.44888">
        <ele>420.68</ele>
        <time>2020-10-23T07:32:50Z</time>
      </trkpt>
      <trkpt lat="43.35223" lon="2.44877">
        <ele>417.55</ele>
        <time>2020-10-23T07:33:07Z</time>
      </trkpt>
      <trkpt lat="43.35193" lon="2.4486">
        <ele>419.06</ele>
        <time>2020-10-23T07:33:33Z</time>
      </trkpt>
      <trkpt lat="43.35163" lon="2.44849">
        <ele>417.8</ele>
        <time>2020-10-23T07:33:56Z</time>
      </trkpt>
      <trkpt lat="43.35136" lon="2.44836">
        <ele>415.64</ele>
        <time>2020-10-23T07:34:14Z</time>
      </trkpt>
      <trkpt lat="43.35121" lon="2.44806">
        <ele>409.47</ele>
        <time>2020-10-23T07:34:41Z</time>
      </trkpt>
      <trkpt lat="43.35117" lon="2.44772">
        <ele>404.73</ele>
        <time>2020-10-23T07:35:03Z</time>
      </trkpt>
      <trkpt lat="43.35116" lon="2.44728">
        <ele>400.06</ele>
        <time>2020-10-23T07:35:22Z</time>
      </trkpt>
      <trkpt lat="43.35117" lon="2.44689">
        <ele>397.97</ele>
        <time>2020-10-23T07:35:38Z</time>
      </trkpt>
      <trkpt lat="43.35116" lon="2.44655">
        <ele>393.96</ele>
        <time>2020-10-23T07:35:57Z</time>
      </trkpt>
      <trkpt lat="43.35098" lon="2.44613">
        <ele>389.06</ele>
        <time>2020-10-23T07:36:17Z</time>
      </trkpt>
      <trkpt lat="43.35085" lon="2.44583">
        <ele>387.86</ele>
        <time>2020-10-23T07:36:28Z</time>
      </trkpt>
      <trkpt lat="43.35083" lon="2.44549">
        <ele>386.01</ele>
        <time>2020-10-23T07:36:41Z</time>
      </trkpt>
      <trkpt lat="43.35081" lon="2.44514">
        <ele>383.15</ele>
        <time>2020-10-23T07:36:56Z</time>
      </trkpt>
      <trkpt lat="43.35089" lon="2.44482">
        <ele>379.16</ele>
        <time>2020-10-23T07:37:12Z</time>
      </trkpt>
      <trkpt lat="43.35099" lon="2.44452">
        <ele>375.51</ele>
        <time>2020-10-23T07:37:29Z</time>
      </trkpt>
      <trkpt lat="43.35101" lon="2.44404">
        <ele>370.47</ele>
        <time>2020-10-23T07:37:46Z</time>
      </trkpt>
      <trkpt lat="43.35106" lon="2.44358">
        <ele>364.84</ele>
        <time>2020-10-23T07:38:10Z</time>
      </trkpt>
      <trkpt lat="43.35081" lon="2.44349">
        <ele>370.54</ele>
        <time>2020-10-23T07:38:37Z</time>
      </trkpt>
      <trkpt lat="43.35058" lon="2.44361">
        <ele>375.5</ele>
        <time>2020-10-23T07:38:57Z</time>
      </trkpt>
      <trkpt lat="43.35034" lon="2.4436">
        <ele>380.98</ele>
        <time>2020-10-23T07:39:24Z</time>
      </trkpt>
      <trkpt lat="43.35002" lon="2.44355">
        <ele>386.13</ele>
        <time>2020-10-23T07:39:53Z</time>
      </trkpt>
      <trkpt lat="43.34975" lon="2.44346">
        <ele>394.02</ele>
        <time>2020-10-23T07:40:28Z</time>
      </trkpt>
      <trkpt lat="43.3495" lon="2.44344">
        <ele>400.61</ele>
        <time>2020-10-23T07:40:57Z</time>
      </trkpt>
      <trkpt lat="43.34934" lon="2.44331">
        <ele>409</ele>
        <time>2020-10-23T07:41:29Z</time>
      </trkpt>
      <trkpt lat="43.3493" lon="2.44314">
        <ele>416.54</ele>
        <time>2020-10-23T07:41:57Z</time>
      </trkpt>
      <trkpt lat="43.34907" lon="2.44319">
        <ele>426.04</ele>
        <time>2020-10-23T07:42:33Z</time>
      </trkpt>
      <trkpt lat="43.34895" lon="2.44338">
        <ele>432.9</ele>
        <time>2020-10-23T07:43:13Z</time>
      </trkpt>
      <trkpt lat="43.34884" lon="2.44318">
        <ele>439.18</ele>
        <time>2020-10-23T07:43:51Z</time>
      </trkpt>
      <trkpt lat="43.34868" lon="2.44321">
        <ele>448.36</ele>
        <time>2020-10-23T07:44:29Z</time>
      </trkpt>
      <trkpt lat="43.34844" lon="2.44333">
        <ele>452.78</ele>
        <time>2020-10-23T07:44:53Z</time>
      </trkpt>
      <trkpt lat="43.34826" lon="2.44324">
        <ele>454.65</ele>
        <time>2020-10-23T07:45:37Z</time>
      </trkpt>
      <trkpt lat="43.34808" lon="2.44305">
        <ele>451.39</ele>
        <time>2020-10-23T07:45:55Z</time>
      </trkpt>
      <trkpt lat="43.34794" lon="2.44286">
        <ele>445.81</ele>
        <time>2020-10-23T07:46:16Z</time>
      </trkpt>
      <trkpt lat="43.34777" lon="2.44251">
        <ele>440.29</ele>
        <time>2020-10-23T07:46:42Z</time>
      </trkpt>
      <trkpt lat="43.34755" lon="2.44219">
        <ele>437.51</ele>
        <time>2020-10-23T07:46:55Z</time>
      </trkpt>
      <trkpt lat="43.34748" lon="2.44187">
        <ele>436.92</ele>
        <time>2020-10-23T07:47:06Z</time>
      </trkpt>
      <trkpt lat="43.34743" lon="2.44151">
        <ele>437.79</ele>
        <time>2020-10-23T07:47:16Z</time>
      </trkpt>
      <trkpt lat="43.34735" lon="2.44117">
        <ele>436.77</ele>
        <time>2020-10-23T07:47:25Z</time>
      </trkpt>
      <trkpt lat="43.34729" lon="2.44083">
        <ele>435.48</ele>
        <time>2020-10-23T07:47:33Z</time>
      </trkpt>
      <trkpt lat="43.34722" lon="2.44051">
        <ele>434.15</ele>
        <time>2020-10-23T07:47:41Z</time>
      </trkpt>
      <trkpt lat="43.34715" lon="2.44024">
        <ele>431.39</ele>
        <time>2020-10-23T07:47:49Z</time>
      </trkpt>
      <trkpt lat="43.34713" lon="2.43993">
        <ele>427.97</ele>
        <time>2020-10-23T07:47:59Z</time>
      </trkpt>
      <trkpt lat="43.34713" lon="2.43959">
        <ele>426.08</ele>
        <time>2020-10-23T07:48:09Z</time>
      </trkpt>
      <trkpt lat="43.3471" lon="2.43924">
        <ele>425.15</ele>
        <time>2020-10-23T07:48:19Z</time>
      </trkpt>
      <trkpt lat="43.34706" lon="2.43889">
        <ele>424.27</ele>
        <time>2020-10-23T07:48:29Z</time>
      </trkpt>
      <trkpt lat="43.34708" lon="2.43857">
        <ele>423.03</ele>
        <time>2020-10-23T07:48:37Z</time>
      </trkpt>
      <trkpt lat="43.34714" lon="2.43822">
        <ele>421.85</ele>
        <time>2020-10-23T07:48:48Z</time>
      </trkpt>
      <trkpt lat="43.34713" lon="2.43779">
        <ele>421.67</ele>
        <time>2020-10-23T07:49:00Z</time>
      </trkpt>
      <trkpt lat="43.34699" lon="2.43741">
        <ele>420.38</ele>
        <time>2020-10-23T07:49:11Z</time>
      </trkpt>
      <trkpt lat="43.34674" lon="2.4372">
        <ele>419.49</ele>
        <time>2020-10-23T07:49:23Z</time>
      </trkpt>
      <trkpt lat="43.34651" lon="2.4371">
        <ele>417.64</ele>
        <time>2020-10-23T07:49:33Z</time>
      </trkpt>
      <trkpt lat="43.34639" lon="2.43684">
        <ele>414.99</ele>
        <time>2020-10-23T07:49:45Z</time>
      </trkpt>
      <trkpt lat="43.34627" lon="2.43658">
        <ele>413.03</ele>
        <time>2020-10-23T07:49:53Z</time>
      </trkpt>
      <trkpt lat="43.34617" lon="2.4364">
        <ele>411.83</ele>
        <time>2020-10-23T07:50:02Z</time>
      </trkpt>
      <trkpt lat="43.3462" lon="2.43609">
        <ele>411.8</ele>
        <time>2020-10-23T07:50:11Z</time>
      </trkpt>
      <trkpt lat="43.34623" lon="2.43583">
        <ele>412.26</ele>
        <time>2020-10-23T07:50:22Z</time>
      </trkpt>
      <trkpt lat="43.3461" lon="2.43546">
        <ele>409.72</ele>
        <time>2020-10-23T07:50:35Z</time>
      </trkpt>
      <trkpt lat="43.34601" lon="2.43516">
        <ele>407.33</ele>
        <time>2020-10-23T07:50:50Z</time>
      </trkpt>
      <trkpt lat="43.34593" lon="2.43465">
        <ele>402.55</ele>
        <time>2020-10-23T07:51:10Z</time>
      </trkpt>
      <trkpt lat="43.34546" lon="2.43423">
        <ele>399.48</ele>
        <time>2020-10-23T07:51:32Z</time>
      </trkpt>
      <trkpt lat="43.34499" lon="2.4342">
        <ele>399.09</ele>
        <time>2020-10-23T07:51:58Z</time>
      </trkpt>
      <trkpt lat="43.34466" lon="2.43391">
        <ele>395.95</ele>
        <time>2020-10-23T07:52:18Z</time>
      </trkpt>
      <trkpt lat="43.34439" lon="2.43344">
        <ele>395.56</ele>
        <time>2020-10-23T07:52:36Z</time>
      </trkpt>
      <trkpt lat="43.34412" lon="2.43309">
        <ele>393.74</ele>
        <time>2020-10-23T07:52:52Z</time>
      </trkpt>
      <trkpt lat="43.34381" lon="2.43273">
        <ele>389.13</ele>
        <time>2020-10-23T07:53:09Z</time>
      </trkpt>
      <trkpt lat="43.3434" lon="2.4321">
        <ele>382.38</ele>
        <time>2020-10-23T07:53:33Z</time>
      </trkpt>
      <trkpt lat="43.34306" lon="2.4317">
        <ele>374.84</ele>
        <time>2020-10-23T07:53:59Z</time>
      </trkpt>
      <trkpt lat="43.34301" lon="2.43116">
        <ele>371.28</ele>
        <time>2020-10-23T07:54:17Z</time>
      </trkpt>
      <trkpt lat="43.34283" lon="2.43058">
        <ele>370.7</ele>
        <time>2020-10-23T07:54:37Z</time>
      </trkpt>
      <trkpt lat="43.34264" lon="2.4302">
        <ele>367.97</ele>
        <time>2020-10-23T07:54:54Z</time>
      </trkpt>
      <trkpt lat="43.34241" lon="2.42982">
        <ele>365.02</ele>
        <time>2020-10-23T07:55:11Z</time>
      </trkpt>
      <trkpt lat="43.34221" lon="2.42929">
        <ele>361.05</ele>
        <time>2020-10-23T07:55:28Z</time>
      </trkpt>
      <trkpt lat="43.34197" lon="2.42901">
        <ele>355.08</ele>
        <time>2020-10-23T07:55:56Z</time>
      </trkpt>
      <trkpt lat="43.3421" lon="2.4286">
        <ele>353.37</ele>
        <time>2020-10-23T07:56:25Z</time>
      </trkpt>
      <trkpt lat="43.34178" lon="2.4285">
        <ele>350.27</ele>
        <time>2020-10-23T07:56:52Z</time>
      </trkpt>
      <trkpt lat="43.34139" lon="2.42854">
        <ele>348.43</ele>
        <time>2020-10-23T07:57:11Z</time>
      </trkpt>
      <trkpt lat="43.34116" lon="2.42855">
        <ele>347.68</ele>
        <time>2020-10-23T07:57:26Z</time>
      </trkpt>
      <trkpt lat="43.34076" lon="2.42868">
        <ele>347.78</ele>
        <time>2020-10-23T07:57:47Z</time>
      </trkpt>
      <trkpt lat="43.34029" lon="2.42865">
        <ele>352.43</ele>
        <time>2020-10-23T07:58:07Z</time>
      </trkpt>
      <trkpt lat="43.33996" lon="2.42863">
        <ele>358.04</ele>
        <time>2020-10-23T07:58:28Z</time>
      </trkpt>
      <trkpt lat="43.33969" lon="2.42863">
        <ele>363.39</ele>
        <time>2020-10-23T07:58:49Z</time>
      </trkpt>
      <trkpt lat="43.33943" lon="2.42861">
        <ele>368.71</ele>
        <time>2020-10-23T07:59:09Z</time>
      </trkpt>
      <trkpt lat="43.33915" lon="2.42859">
        <ele>373.05</ele>
        <time>2020-10-23T07:59:37Z</time>
      </trkpt>
      <trkpt lat="43.33893" lon="2.42867">
        <ele>374.25</ele>
        <time>2020-10-23T07:59:57Z</time>
      </trkpt>
      <trkpt lat="43.3387" lon="2.42881">
        <ele>372.73</ele>
        <time>2020-10-23T08:00:16Z</time>
      </trkpt>
      <trkpt lat="43.33843" lon="2.42895">
        <ele>372</ele>
        <time>2020-10-23T08:00:29Z</time>
      </trkpt>
      <trkpt lat="43.33821" lon="2.42907">
        <ele>370.85</ele>
        <time>2020-10-23T08:00:40Z</time>
      </trkpt>
      <trkpt lat="43.3379" lon="2.42916">
        <ele>369.19</ele>
        <time>2020-10-23T08:00:57Z</time>
      </trkpt>
      <trkpt lat="43.3376" lon="2.42933">
        <ele>366.88</ele>
        <time>2020-10-23T08:01:10Z</time>
      </trkpt>
      <trkpt lat="43.33732" lon="2.42944">
        <ele>364.28</ele>
        <time>2020-10-23T08:01:21Z</time>
      </trkpt>
      <trkpt lat="43.33706" lon="2.42951">
        <ele>361.8</ele>
        <time>2020-10-23T08:01:33Z</time>
      </trkpt>
      <trkpt lat="43.33682" lon="2.42975">
        <ele>359.71</ele>
        <time>2020-10-23T08:01:43Z</time>
      </trkpt>
      <trkpt lat="43.33658" lon="2.4299">
        <ele>358.48</ele>
        <time>2020-10-23T08:01:53Z</time>
      </trkpt>
      <trkpt lat="43.33635" lon="2.42997">
        <ele>359.07</ele>
        <time>2020-10-23T08:02:03Z</time>
      </trkpt>
      <trkpt lat="43.3361" lon="2.43007">
        <ele>360.79</ele>
        <time>2020-10-23T08:02:21Z</time>
      </trkpt>
      <trkpt lat="43.3359" lon="2.43021">
        <ele>361.36</ele>
        <time>2020-10-23T08:02:43Z</time>
      </trkpt>
      <trkpt lat="43.33567" lon="2.43018">
        <ele>361.36</ele>
        <time>2020-10-23T08:02:58Z</time>
      </trkpt>
      <trkpt lat="43.33545" lon="2.43012">
        <ele>361.26</ele>
        <time>2020-10-23T08:03:09Z</time>
      </trkpt>
      <trkpt lat="43.33522" lon="2.43007">
        <ele>361.22</ele>
        <time>2020-10-23T08:03:19Z</time>
      </trkpt>
      <trkpt lat="43.335" lon="2.42997">
        <ele>359.36</ele>
        <time>2020-10-23T08:03:29Z</time>
      </trkpt>
      <trkpt lat="43.33479" lon="2.42985">
        <ele>357.56</ele>
        <time>2020-10-23T08:03:39Z</time>
      </trkpt>
      <trkpt lat="43.3346" lon="2.42964">
        <ele>356.43</ele>
        <time>2020-10-23T08:03:49Z</time>
      </trkpt>
      <trkpt lat="43.33455" lon="2.42937">
        <ele>356.01</ele>
        <time>2020-10-23T08:03:58Z</time>
      </trkpt>
      <trkpt lat="43.3345" lon="2.42905">
        <ele>354.36</ele>
        <time>2020-10-23T08:04:10Z</time>
      </trkpt>
      <trkpt lat="43.33445" lon="2.42874">
        <ele>352.42</ele>
        <time>2020-10-23T08:04:21Z</time>
      </trkpt>
      <trkpt lat="43.33429" lon="2.42846">
        <ele>350.36</ele>
        <time>2020-10-23T08:04:30Z</time>
      </trkpt>
      <trkpt lat="43.33413" lon="2.42819">
        <ele>348.94</ele>
        <time>2020-10-23T08:04:38Z</time>
      </trkpt>
      <trkpt lat="43.33401" lon="2.42791">
        <ele>348.19</ele>
        <time>2020-10-23T08:04:47Z</time>
      </trkpt>
      <trkpt lat="43.33399" lon="2.42762">
        <ele>348.37</ele>
        <time>2020-10-23T08:04:57Z</time>
      </trkpt>
      <trkpt lat="43.33409" lon="2.42741">
        <ele>351.03</ele>
        <time>2020-10-23T08:05:09Z</time>
      </trkpt>
      <trkpt lat="43.33394" lon="2.42727">
        <ele>352.27</ele>
        <time>2020-10-23T08:05:23Z</time>
      </trkpt>
      <trkpt lat="43.33372" lon="2.42715">
        <ele>352.32</ele>
        <time>2020-10-23T08:05:33Z</time>
      </trkpt>
      <trkpt lat="43.33351" lon="2.42699">
        <ele>352.19</ele>
        <time>2020-10-23T08:05:43Z</time>
      </trkpt>
      <trkpt lat="43.33326" lon="2.4268">
        <ele>351.83</ele>
        <time>2020-10-23T08:05:53Z</time>
      </trkpt>
      <trkpt lat="43.33306" lon="2.42674">
        <ele>350.29</ele>
        <time>2020-10-23T08:06:02Z</time>
      </trkpt>
      <trkpt lat="43.33295" lon="2.42694">
        <ele>348.48</ele>
        <time>2020-10-23T08:06:11Z</time>
      </trkpt>
      <trkpt lat="43.33281" lon="2.42711">
        <ele>346.97</ele>
        <time>2020-10-23T08:06:22Z</time>
      </trkpt>
      <trkpt lat="43.33263" lon="2.4273">
        <ele>342.66</ele>
        <time>2020-10-23T08:06:34Z</time>
      </trkpt>
      <trkpt lat="43.33253" lon="2.42765">
        <ele>337.33</ele>
        <time>2020-10-23T08:06:47Z</time>
      </trkpt>
      <trkpt lat="43.33227" lon="2.42784">
        <ele>332.61</ele>
        <time>2020-10-23T08:07:02Z</time>
      </trkpt>
      <trkpt lat="43.33199" lon="2.42798">
        <ele>325.93</ele>
        <time>2020-10-23T08:07:17Z</time>
      </trkpt>
      <trkpt lat="43.33169" lon="2.42803">
        <ele>321</ele>
        <time>2020-10-23T08:07:30Z</time>
      </trkpt>
      <trkpt lat="43.33134" lon="2.42817">
        <ele>314.54</ele>
        <time>2020-10-23T08:07:46Z</time>
      </trkpt>
      <trkpt lat="43.33107" lon="2.42796">
        <ele>311.73</ele>
        <time>2020-10-23T08:08:03Z</time>
      </trkpt>
      <trkpt lat="43.33092" lon="2.4275">
        <ele>309.62</ele>
        <time>2020-10-23T08:08:18Z</time>
      </trkpt>
      <trkpt lat="43.33069" lon="2.4272">
        <ele>309.43</ele>
        <time>2020-10-23T08:08:34Z</time>
      </trkpt>
      <trkpt lat="43.33055" lon="2.42675">
        <ele>308.36</ele>
        <time>2020-10-23T08:08:53Z</time>
      </trkpt>
      <trkpt lat="43.33038" lon="2.42626">
        <ele>304.79</ele>
        <time>2020-10-23T08:09:15Z</time>
      </trkpt>
      <trkpt lat="43.33027" lon="2.42578">
        <ele>301.08</ele>
        <time>2020-10-23T08:09:33Z</time>
      </trkpt>
      <trkpt lat="43.33007" lon="2.42533">
        <ele>295.62</ele>
        <time>2020-10-23T08:09:55Z</time>
      </trkpt>
      <trkpt lat="43.32982" lon="2.4249">
        <ele>289.65</ele>
        <time>2020-10-23T08:10:23Z</time>
      </trkpt>
      <trkpt lat="43.32955" lon="2.42473">
        <ele>290.36</ele>
        <time>2020-10-23T08:10:43Z</time>
      </trkpt>
      <trkpt lat="43.3295" lon="2.42434">
        <ele>285.55</ele>
        <time>2020-10-23T08:11:05Z</time>
      </trkpt>
      <trkpt lat="43.32971" lon="2.42424">
        <ele>272.15</ele>
        <time>2020-10-23T08:11:39Z</time>
      </trkpt>
      <trkpt lat="43.32958" lon="2.4237">
        <ele>260.48</ele>
        <time>2020-10-23T08:12:12Z</time>
      </trkpt>
      <trkpt lat="43.32959" lon="2.42354">
        <ele>251.08</ele>
        <time>2020-10-23T08:12:42Z</time>
      </trkpt>
      <trkpt lat="43.32958" lon="2.42318">
        <ele>244.98</ele>
        <time>2020-10-23T08:13:11Z</time>
      </trkpt>
      <trkpt lat="43.32947" lon="2.42294">
        <ele>248.33</ele>
        <time>2020-10-23T08:13:41Z</time>
      </trkpt>
      <trkpt lat="43.32916" lon="2.42286">
        <ele>252.2</ele>
        <time>2020-10-23T08:14:14Z</time>
      </trkpt>
      <trkpt lat="43.32902" lon="2.4226">
        <ele>253.78</ele>
        <time>2020-10-23T08:14:46Z</time>
      </trkpt>
      <trkpt lat="43.32878" lon="2.42196">
        <ele>252.04</ele>
        <time>2020-10-23T08:15:11Z</time>
      </trkpt>
      <trkpt lat="43.32853" lon="2.42165">
        <ele>248.04</ele>
        <time>2020-10-23T08:15:26Z</time>
      </trkpt>
      <trkpt lat="43.32822" lon="2.4215">
        <ele>241.76</ele>
        <time>2020-10-23T08:15:47Z</time>
      </trkpt>
      <trkpt lat="43.32801" lon="2.42143">
        <ele>237.93</ele>
        <time>2020-10-23T08:16:20Z</time>
      </trkpt>
      <trkpt lat="43.32787" lon="2.42118">
        <ele>237.53</ele>
        <time>2020-10-23T08:16:37Z</time>
      </trkpt>
      <trkpt lat="43.32775" lon="2.42087">
        <ele>238.78</ele>
        <time>2020-10-23T08:16:50Z</time>
      </trkpt>
      <trkpt lat="43.32758" lon="2.42059">
        <ele>240.16</ele>
        <time>2020-10-23T08:17:05Z</time>
      </trkpt>
      <trkpt lat="43.32733" lon="2.42034">
        <ele>243.47</ele>
        <time>2020-10-23T08:17:25Z</time>
      </trkpt>
      <trkpt lat="43.32695" lon="2.42002">
        <ele>247.58</ele>
        <time>2020-10-23T08:17:50Z</time>
      </trkpt>
      <trkpt lat="43.32657" lon="2.41983">
        <ele>249.75</ele>
        <time>2020-10-23T08:18:09Z</time>
      </trkpt>
      <trkpt lat="43.32624" lon="2.41973">
        <ele>251.78</ele>
        <time>2020-10-23T08:18:21Z</time>
      </trkpt>
      <trkpt lat="43.32596" lon="2.41974">
        <ele>256.95</ele>
        <time>2020-10-23T08:18:38Z</time>
      </trkpt>
      <trkpt lat="43.32586" lon="2.41955">
        <ele>260.76</ele>
        <time>2020-10-23T08:18:55Z</time>
      </trkpt>
      <trkpt lat="43.32597" lon="2.41938">
        <ele>263.18</ele>
        <time>2020-10-23T08:19:11Z</time>
      </trkpt>
      <trkpt lat="43.32617" lon="2.41941">
        <ele>267.03</ele>
        <time>2020-10-23T08:19:29Z</time>
      </trkpt>
      <trkpt lat="43.32639" lon="2.41929">
        <ele>271.22</ele>
        <time>2020-10-23T08:19:55Z</time>
      </trkpt>
      <trkpt lat="43.32663" lon="2.4193">
        <ele>274.35</ele>
        <time>2020-10-23T08:20:11Z</time>
      </trkpt>
      <trkpt lat="43.32685" lon="2.41937">
        <ele>276.46</ele>
        <time>2020-10-23T08:20:23Z</time>
      </trkpt>
      <trkpt lat="43.32707" lon="2.41942">
        <ele>278.1</ele>
        <time>2020-10-23T08:20:35Z</time>
      </trkpt>
      <trkpt lat="43.32724" lon="2.41947">
        <ele>280.11</ele>
        <time>2020-10-23T08:20:52Z</time>
      </trkpt>
      <trkpt lat="43.32735" lon="2.41952">
        <ele>281.48</ele>
        <time>2020-10-23T08:21:11Z</time>
      </trkpt>
      <trkpt lat="43.32751" lon="2.41936">
        <ele>284.96</ele>
        <time>2020-10-23T08:21:31Z</time>
      </trkpt>
      <trkpt lat="43.32751" lon="2.41906">
        <ele>288.42</ele>
        <time>2020-10-23T08:21:48Z</time>
      </trkpt>
      <trkpt lat="43.32738" lon="2.41884">
        <ele>289.82</ele>
        <time>2020-10-23T08:22:04Z</time>
      </trkpt>
      <trkpt lat="43.32721" lon="2.41875">
        <ele>289.02</ele>
        <time>2020-10-23T08:22:18Z</time>
      </trkpt>
      <trkpt lat="43.32698" lon="2.4188">
        <ele>287.47</ele>
        <time>2020-10-23T08:22:31Z</time>
      </trkpt>
      <trkpt lat="43.32674" lon="2.41889">
        <ele>286.78</ele>
        <time>2020-10-23T08:22:44Z</time>
      </trkpt>
      <trkpt lat="43.32649" lon="2.41894">
        <ele>286.84</ele>
        <time>2020-10-23T08:23:05Z</time>
      </trkpt>
      <trkpt lat="43.3262" lon="2.41898">
        <ele>286.63</ele>
        <time>2020-10-23T08:23:34Z</time>
      </trkpt>
      <trkpt lat="43.32605" lon="2.41897">
        <ele>286.49</ele>
        <time>2020-10-23T08:24:23Z</time>
      </trkpt>
      <trkpt lat="43.32597" lon="2.41904">
        <ele>285.19</ele>
        <time>2020-10-23T08:25:13Z</time>
      </trkpt>
      <trkpt lat="43.32577" lon="2.41908">
        <ele>281.73</ele>
        <time>2020-10-23T08:25:31Z</time>
      </trkpt>
      <trkpt lat="43.32552" lon="2.41916">
        <ele>275.55</ele>
        <time>2020-10-23T08:25:51Z</time>
      </trkpt>
      <trkpt lat="43.32528" lon="2.41924">
        <ele>272.99</ele>
        <time>2020-10-23T08:26:05Z</time>
      </trkpt>
      <trkpt lat="43.325" lon="2.41927">
        <ele>270.01</ele>
        <time>2020-10-23T08:26:29Z</time>
      </trkpt>
      <trkpt lat="43.32484" lon="2.41941">
        <ele>262.35</ele>
        <time>2020-10-23T08:27:01Z</time>
      </trkpt>
      <trkpt lat="43.3249" lon="2.41923">
        <ele>263.05</ele>
        <time>2020-10-23T08:27:32Z</time>
      </trkpt>
      <trkpt lat="43.32476" lon="2.41932">
        <ele>261.77</ele>
        <time>2020-10-23T08:27:51Z</time>
      </trkpt>
      <trkpt lat="43.32462" lon="2.41927">
        <ele>258.83</ele>
        <time>2020-10-23T08:28:01Z</time>
      </trkpt>
      <trkpt lat="43.32453" lon="2.41952">
        <ele>254.83</ele>
        <time>2020-10-23T08:28:12Z</time>
      </trkpt>
      <trkpt lat="43.32449" lon="2.41983">
        <ele>252.31</ele>
        <time>2020-10-23T08:28:22Z</time>
      </trkpt>
      <trkpt lat="43.32448" lon="2.42013">
        <ele>248.81</ele>
        <time>2020-10-23T08:28:31Z</time>
      </trkpt>
      <trkpt lat="43.32438" lon="2.42028">
        <ele>243.44</ele>
        <time>2020-10-23T08:28:42Z</time>
      </trkpt>
      <trkpt lat="43.32419" lon="2.42026">
        <ele>239.63</ele>
        <time>2020-10-23T08:28:51Z</time>
      </trkpt>
      <trkpt lat="43.32399" lon="2.42032">
        <ele>235.49</ele>
        <time>2020-10-23T08:29:03Z</time>
      </trkpt>
      <trkpt lat="43.32366" lon="2.42019">
        <ele>229.42</ele>
        <time>2020-10-23T08:29:26Z</time>
      </trkpt>
      <trkpt lat="43.32341" lon="2.42036">
        <ele>225.48</ele>
        <time>2020-10-23T08:29:43Z</time>
      </trkpt>
      <trkpt lat="43.32322" lon="2.42054">
        <ele>223.9</ele>
        <time>2020-10-23T08:29:51Z</time>
      </trkpt>
      <trkpt lat="43.32305" lon="2.4207">
        <ele>221.48</ele>
        <time>2020-10-23T08:29:58Z</time>
      </trkpt>
      <trkpt lat="43.32285" lon="2.42083">
        <ele>218.83</ele>
        <time>2020-10-23T08:30:06Z</time>
      </trkpt>
      <trkpt lat="43.32262" lon="2.42089">
        <ele>215.89</ele>
        <time>2020-10-23T08:30:16Z</time>
      </trkpt>
      <trkpt lat="43.32237" lon="2.42096">
        <ele>213.9</ele>
        <time>2020-10-23T08:30:25Z</time>
      </trkpt>
      <trkpt lat="43.32213" lon="2.42099">
        <ele>212.3</ele>
        <time>2020-10-23T08:30:34Z</time>
      </trkpt>
      <trkpt lat="43.32191" lon="2.42095">
        <ele>211.22</ele>
        <time>2020-10-23T08:30:43Z</time>
      </trkpt>
      <trkpt lat="43.3217" lon="2.42091">
        <ele>210.29</ele>
        <time>2020-10-23T08:30:53Z</time>
      </trkpt>
      <trkpt lat="43.32147" lon="2.42086">
        <ele>209.81</ele>
        <time>2020-10-23T08:31:03Z</time>
      </trkpt>
      <trkpt lat="43.32118" lon="2.42086">
        <ele>209.33</ele>
        <time>2020-10-23T08:31:14Z</time>
      </trkpt>
      <trkpt lat="43.32103" lon="2.4207">
        <ele>208.41</ele>
        <time>2020-10-23T08:31:23Z</time>
      </trkpt>
      <trkpt lat="43.32089" lon="2.4205">
        <ele>207.86</ele>
        <time>2020-10-23T08:31:32Z</time>
      </trkpt>
      <trkpt lat="43.32076" lon="2.42021">
        <ele>207.26</ele>
        <time>2020-10-23T08:31:42Z</time>
      </trkpt>
      <trkpt lat="43.32062" lon="2.41987">
        <ele>207.04</ele>
        <time>2020-10-23T08:31:57Z</time>
      </trkpt>
      <trkpt lat="43.32047" lon="2.41961">
        <ele>206.42</ele>
        <time>2020-10-23T08:32:07Z</time>
      </trkpt>
      <trkpt lat="43.32027" lon="2.41976">
        <ele>205.83</ele>
        <time>2020-10-23T08:32:21Z</time>
      </trkpt>
      <trkpt lat="43.32026" lon="2.41982">
        <ele>201.86</ele>
        <time>2020-10-23T08:32:39Z</time>
      </trkpt>
    </trkseg>
  </trk>
</gpx>